sensor_id;sensor_type;location;lat;lon;timestamp;P1;durP1;ratioP1;P2;durP2;ratioP2
41059;SDS011;26811;53.160;8.202;2023-09-07T00:00:29;5.05;;;3.78;;
41059;SDS011;26811;53.160;8.202;2023-09-07T00:05:31;5.38;;;4.07;;
41059;SDS011;26811;53.160;8.202;2023-09-07T00:10:34;4.13;;;3.80;;
41059;SDS011;26811;53.160;8.202;2023-09-07T00:15:36;4.95;;;4.07;;
41059;SDS011;26811;53.160;8.202;2023-09-07T00:20:38;4.78;;;3.42;;
41059;SDS011;26811;53.160;8.202;2023-09-07T00:25:38;6.32;;;4.30;;
41059;SDS011;26811;53.160;8.202;2023-09-07T00:30:39;5.47;;;4.25;;
41059;SDS011;26811;53.160;8.202;2023-09-07T00:35:40;8.20;;;3.92;;
41059;SDS011;26811;53.160;8.202;2023-09-07T00:40:44;5.00;;;4.50;;
41059;SDS011;26811;53.160;8.202;2023-09-07T00:45:47;5.93;;;4.53;;
41059;SDS011;26811;53.160;8.202;2023-09-07T00:50:48;5.18;;;4.07;;
41059;SDS011;26811;53.160;8.202;2023-09-07T00:55:49;5.60;;;4.40;;
41059;SDS011;26811;53.160;8.202;2023-09-07T01:00:50;9.38;;;5.18;;
41059;SDS011;26811;53.160;8.202;2023-09-07T01:05:54;5.72;;;4.53;;
41059;SDS011;26811;53.160;8.202;2023-09-07T01:10:58;5.95;;;4.28;;
41059;SDS011;26811;53.160;8.202;2023-09-07T01:15:59;4.78;;;4.38;;
41059;SDS011;26811;53.160;8.202;2023-09-07T01:21:00;10.38;;;4.55;;
41059;SDS011;26811;53.160;8.202;2023-09-07T01:26:03;7.20;;;4.20;;
41059;SDS011;26811;53.160;8.202;2023-09-07T01:36:09;6.47;;;4.32;;
41059;SDS011;26811;53.160;8.202;2023-09-07T01:41:10;6.22;;;4.72;;
41059;SDS011;26811;53.160;8.202;2023-09-07T01:46:10;5.18;;;4.50;;
41059;SDS011;26811;53.160;8.202;2023-09-07T01:51:11;4.85;;;4.25;;
41059;SDS011;26811;53.160;8.202;2023-09-07T01:56:11;5.72;;;4.93;;
41059;SDS011;26811;53.160;8.202;2023-09-07T02:01:25;6.75;;;5.65;;
41059;SDS011;26811;53.160;8.202;2023-09-07T02:06:27;8.73;;;5.70;;
41059;SDS011;26811;53.160;8.202;2023-09-07T02:11:28;6.03;;;5.40;;
41059;SDS011;26811;53.160;8.202;2023-09-07T02:16:28;7.07;;;5.75;;
41059;SDS011;26811;53.160;8.202;2023-09-07T02:21:29;6.32;;;5.20;;
41059;SDS011;26811;53.160;8.202;2023-09-07T02:26:29;6.88;;;5.50;;
41059;SDS011;26811;53.160;8.202;2023-09-07T02:31:30;8.40;;;5.53;;
41059;SDS011;26811;53.160;8.202;2023-09-07T02:36:30;6.13;;;5.30;;
41059;SDS011;26811;53.160;8.202;2023-09-07T02:41:31;7.75;;;6.10;;
41059;SDS011;26811;53.160;8.202;2023-09-07T02:46:31;6.40;;;5.50;;
41059;SDS011;26811;53.160;8.202;2023-09-07T02:51:32;7.65;;;5.57;;
41059;SDS011;26811;53.160;8.202;2023-09-07T02:56:33;9.52;;;5.78;;
41059;SDS011;26811;53.160;8.202;2023-09-07T03:01:33;6.43;;;5.65;;
41059;SDS011;26811;53.160;8.202;2023-09-07T03:06:34;7.88;;;6.18;;
41059;SDS011;26811;53.160;8.202;2023-09-07T03:11:35;7.25;;;6.35;;
41059;SDS011;26811;53.160;8.202;2023-09-07T03:16:35;8.68;;;6.35;;
41059;SDS011;26811;53.160;8.202;2023-09-07T03:21:36;7.60;;;6.35;;
41059;SDS011;26811;53.160;8.202;2023-09-07T03:26:37;10.73;;;6.68;;
41059;SDS011;26811;53.160;8.202;2023-09-07T03:31:37;12.13;;;6.60;;
41059;SDS011;26811;53.160;8.202;2023-09-07T03:36:38;12.05;;;7.50;;
41059;SDS011;26811;53.160;8.202;2023-09-07T03:41:38;10.13;;;7.05;;
41059;SDS011;26811;53.160;8.202;2023-09-07T03:46:39;14.55;;;7.22;;
41059;SDS011;26811;53.160;8.202;2023-09-07T03:51:39;11.95;;;7.35;;
41059;SDS011;26811;53.160;8.202;2023-09-07T03:56:40;12.82;;;7.30;;
41059;SDS011;26811;53.160;8.202;2023-09-07T04:01:40;10.07;;;7.65;;
41059;SDS011;26811;53.160;8.202;2023-09-07T04:06:41;9.10;;;6.70;;
41059;SDS011;26811;53.160;8.202;2023-09-07T04:11:41;9.35;;;7.50;;
41059;SDS011;26811;53.160;8.202;2023-09-07T04:16:42;9.65;;;7.95;;
41059;SDS011;26811;53.160;8.202;2023-09-07T04:21:42;11.07;;;7.25;;
41059;SDS011;26811;53.160;8.202;2023-09-07T04:26:43;11.20;;;7.72;;
41059;SDS011;26811;53.160;8.202;2023-09-07T04:31:43;14.82;;;7.97;;
41059;SDS011;26811;53.160;8.202;2023-09-07T04:36:44;11.10;;;8.25;;
41059;SDS011;26811;53.160;8.202;2023-09-07T04:41:44;12.98;;;8.38;;
41059;SDS011;26811;53.160;8.202;2023-09-07T04:46:45;10.80;;;7.80;;
41059;SDS011;26811;53.160;8.202;2023-09-07T04:51:45;10.90;;;8.43;;
41059;SDS011;26811;53.160;8.202;2023-09-07T04:56:46;16.33;;;8.63;;
41059;SDS011;26811;53.160;8.202;2023-09-07T05:01:47;14.27;;;9.73;;
41059;SDS011;26811;53.160;8.202;2023-09-07T05:06:47;16.08;;;9.10;;
41059;SDS011;26811;53.160;8.202;2023-09-07T05:11:48;15.60;;;9.23;;
41059;SDS011;26811;53.160;8.202;2023-09-07T05:16:49;12.90;;;8.85;;
41059;SDS011;26811;53.160;8.202;2023-09-07T05:21:49;15.43;;;9.68;;
41059;SDS011;26811;53.160;8.202;2023-09-07T05:26:50;17.02;;;10.35;;
41059;SDS011;26811;53.160;8.202;2023-09-07T05:31:50;14.45;;;9.98;;
41059;SDS011;26811;53.160;8.202;2023-09-07T05:36:51;17.17;;;10.65;;
41059;SDS011;26811;53.160;8.202;2023-09-07T05:41:51;17.88;;;10.20;;
41059;SDS011;26811;53.160;8.202;2023-09-07T05:46:52;17.58;;;10.55;;
41059;SDS011;26811;53.160;8.202;2023-09-07T05:51:53;17.02;;;9.95;;
41059;SDS011;26811;53.160;8.202;2023-09-07T05:56:56;19.70;;;9.65;;
41059;SDS011;26811;53.160;8.202;2023-09-07T06:01:57;12.35;;;9.80;;
41059;SDS011;26811;53.160;8.202;2023-09-07T06:06:57;14.75;;;9.38;;
41059;SDS011;26811;53.160;8.202;2023-09-07T06:11:58;15.38;;;10.73;;
41059;SDS011;26811;53.160;8.202;2023-09-07T06:16:58;16.98;;;10.10;;
41059;SDS011;26811;53.160;8.202;2023-09-07T06:21:59;15.10;;;9.88;;
41059;SDS011;26811;53.160;8.202;2023-09-07T06:26:59;18.35;;;9.48;;
41059;SDS011;26811;53.160;8.202;2023-09-07T06:32:00;12.85;;;9.23;;
41059;SDS011;26811;53.160;8.202;2023-09-07T06:37:01;15.40;;;10.45;;
41059;SDS011;26811;53.160;8.202;2023-09-07T06:42:01;16.42;;;9.32;;
41059;SDS011;26811;53.160;8.202;2023-09-07T06:47:03;15.70;;;9.87;;
41059;SDS011;26811;53.160;8.202;2023-09-07T06:52:04;16.98;;;9.65;;
41059;SDS011;26811;53.160;8.202;2023-09-07T06:57:07;13.07;;;9.30;;
41059;SDS011;26811;53.160;8.202;2023-09-07T07:02:10;13.85;;;9.00;;
41059;SDS011;26811;53.160;8.202;2023-09-07T07:07:11;16.25;;;9.52;;
41059;SDS011;26811;53.160;8.202;2023-09-07T07:12:11;11.80;;;9.32;;
41059;SDS011;26811;53.160;8.202;2023-09-07T07:17:12;14.10;;;8.77;;
41059;SDS011;26811;53.160;8.202;2023-09-07T07:22:13;15.45;;;8.25;;
41059;SDS011;26811;53.160;8.202;2023-09-07T07:27:14;13.13;;;8.15;;
41059;SDS011;26811;53.160;8.202;2023-09-07T07:32:15;14.93;;;7.53;;
41059;SDS011;26811;53.160;8.202;2023-09-07T07:37:15;13.38;;;7.75;;
41059;SDS011;26811;53.160;8.202;2023-09-07T07:42:16;10.95;;;7.85;;
41059;SDS011;26811;53.160;8.202;2023-09-07T07:47:18;14.90;;;8.23;;
41059;SDS011;26811;53.160;8.202;2023-09-07T07:52:19;8.63;;;7.32;;
41059;SDS011;26811;53.160;8.202;2023-09-07T07:57:19;10.20;;;7.70;;
41059;SDS011;26811;53.160;8.202;2023-09-07T08:02:20;14.63;;;7.55;;
41059;SDS011;26811;53.160;8.202;2023-09-07T08:07:20;13.80;;;7.47;;
41059;SDS011;26811;53.160;8.202;2023-09-07T08:12:21;13.40;;;7.07;;
41059;SDS011;26811;53.160;8.202;2023-09-07T08:17:22;9.23;;;6.88;;
41059;SDS011;26811;53.160;8.202;2023-09-07T08:22:23;9.53;;;7.07;;
41059;SDS011;26811;53.160;8.202;2023-09-07T08:27:25;11.63;;;6.40;;
41059;SDS011;26811;53.160;8.202;2023-09-07T08:32:25;10.07;;;6.73;;
41059;SDS011;26811;53.160;8.202;2023-09-07T08:37:26;9.93;;;6.80;;
41059;SDS011;26811;53.160;8.202;2023-09-07T08:42:26;10.43;;;6.90;;
41059;SDS011;26811;53.160;8.202;2023-09-07T08:47:28;12.13;;;6.22;;
41059;SDS011;26811;53.160;8.202;2023-09-07T08:52:31;8.95;;;6.03;;
41059;SDS011;26811;53.160;8.202;2023-09-07T09:02:33;8.77;;;5.97;;
41059;SDS011;26811;53.160;8.202;2023-09-07T09:07:37;7.53;;;6.18;;
41059;SDS011;26811;53.160;8.202;2023-09-07T09:12:47;8.57;;;6.15;;
41059;SDS011;26811;53.160;8.202;2023-09-07T09:17:47;9.93;;;6.32;;
41059;SDS011;26811;53.160;8.202;2023-09-07T09:22:49;8.30;;;5.90;;
41059;SDS011;26811;53.160;8.202;2023-09-07T09:27:52;7.18;;;5.65;;
41059;SDS011;26811;53.160;8.202;2023-09-07T09:32:52;12.70;;;6.20;;
41059;SDS011;26811;53.160;8.202;2023-09-07T09:37:53;10.55;;;5.75;;
41059;SDS011;26811;53.160;8.202;2023-09-07T09:42:54;13.73;;;5.70;;
41059;SDS011;26811;53.160;8.202;2023-09-07T09:47:55;10.52;;;5.95;;
41059;SDS011;26811;53.160;8.202;2023-09-07T09:52:56;12.97;;;5.57;;
41059;SDS011;26811;53.160;8.202;2023-09-07T09:57:58;8.52;;;5.07;;
41059;SDS011;26811;53.160;8.202;2023-09-07T10:03:08;19.33;;;5.70;;
41059;SDS011;26811;53.160;8.202;2023-09-07T10:08:13;8.23;;;5.18;;
41059;SDS011;26811;53.160;8.202;2023-09-07T10:13:14;9.88;;;5.32;;
41059;SDS011;26811;53.160;8.202;2023-09-07T10:18:15;6.85;;;5.00;;
41059;SDS011;26811;53.160;8.202;2023-09-07T10:23:17;6.47;;;5.63;;
41059;SDS011;26811;53.160;8.202;2023-09-07T10:28:21;6.20;;;5.50;;
41059;SDS011;26811;53.160;8.202;2023-09-07T10:33:23;9.32;;;5.40;;
41059;SDS011;26811;53.160;8.202;2023-09-07T10:38:24;7.53;;;5.27;;
41059;SDS011;26811;53.160;8.202;2023-09-07T10:43:31;9.13;;;5.72;;
41059;SDS011;26811;53.160;8.202;2023-09-07T10:48:32;7.05;;;5.38;;
41059;SDS011;26811;53.160;8.202;2023-09-07T10:58:35;9.57;;;5.37;;
41059;SDS011;26811;53.160;8.202;2023-09-07T11:03:38;7.40;;;4.75;;
41059;SDS011;26811;53.160;8.202;2023-09-07T11:08:39;6.23;;;5.20;;
41059;SDS011;26811;53.160;8.202;2023-09-07T11:13:39;11.43;;;5.03;;
41059;SDS011;26811;53.160;8.202;2023-09-07T11:18:40;9.83;;;4.83;;
41059;SDS011;26811;53.160;8.202;2023-09-07T11:23:41;12.23;;;5.20;;
41059;SDS011;26811;53.160;8.202;2023-09-07T11:28:46;6.85;;;5.30;;
41059;SDS011;26811;53.160;8.202;2023-09-07T11:33:47;5.80;;;5.20;;
41059;SDS011;26811;53.160;8.202;2023-09-07T11:38:49;7.47;;;5.32;;
41059;SDS011;26811;53.160;8.202;2023-09-07T11:43:49;5.73;;;5.03;;
41059;SDS011;26811;53.160;8.202;2023-09-07T11:48:50;8.33;;;5.27;;
41059;SDS011;26811;53.160;8.202;2023-09-07T11:53:50;7.63;;;5.37;;
41059;SDS011;26811;53.160;8.202;2023-09-07T11:58:51;8.73;;;4.37;;
41059;SDS011;26811;53.160;8.202;2023-09-07T12:03:51;5.73;;;4.63;;
41059;SDS011;26811;53.160;8.202;2023-09-07T12:08:59;8.15;;;4.63;;
41059;SDS011;26811;53.160;8.202;2023-09-07T12:14:01;4.75;;;4.13;;
41059;SDS011;26811;53.160;8.202;2023-09-07T12:19:01;8.10;;;4.47;;
41059;SDS011;26811;53.160;8.202;2023-09-07T12:24:02;9.47;;;4.10;;
41059;SDS011;26811;53.160;8.202;2023-09-07T12:29:03;4.40;;;3.95;;
41059;SDS011;26811;53.160;8.202;2023-09-07T12:39:04;5.40;;;3.40;;
41059;SDS011;26811;53.160;8.202;2023-09-07T12:44:05;5.80;;;3.45;;
41059;SDS011;26811;53.160;8.202;2023-09-07T12:49:06;4.63;;;3.72;;
41059;SDS011;26811;53.160;8.202;2023-09-07T12:54:07;8.57;;;4.20;;
41059;SDS011;26811;53.160;8.202;2023-09-07T12:59:07;8.75;;;4.00;;
41059;SDS011;26811;53.160;8.202;2023-09-07T13:04:08;7.57;;;3.90;;
41059;SDS011;26811;53.160;8.202;2023-09-07T13:09:08;8.03;;;4.00;;
41059;SDS011;26811;53.160;8.202;2023-09-07T13:14:09;4.15;;;3.60;;
41059;SDS011;26811;53.160;8.202;2023-09-07T13:19:10;5.07;;;3.38;;
41059;SDS011;26811;53.160;8.202;2023-09-07T13:24:11;5.82;;;3.80;;
41059;SDS011;26811;53.160;8.202;2023-09-07T13:29:11;5.70;;;3.40;;
41059;SDS011;26811;53.160;8.202;2023-09-07T13:34:12;6.70;;;3.77;;
41059;SDS011;26811;53.160;8.202;2023-09-07T13:39:12;6.40;;;3.43;;
41059;SDS011;26811;53.160;8.202;2023-09-07T13:44:13;6.63;;;3.80;;
41059;SDS011;26811;53.160;8.202;2023-09-07T13:49:14;5.88;;;3.30;;
41059;SDS011;26811;53.160;8.202;2023-09-07T13:54:15;4.03;;;3.43;;
41059;SDS011;26811;53.160;8.202;2023-09-07T13:59:18;4.05;;;3.35;;
41059;SDS011;26811;53.160;8.202;2023-09-07T14:04:19;6.50;;;3.97;;
41059;SDS011;26811;53.160;8.202;2023-09-07T14:09:19;4.10;;;3.67;;
41059;SDS011;26811;53.160;8.202;2023-09-07T14:14:23;7.45;;;3.83;;
41059;SDS011;26811;53.160;8.202;2023-09-07T14:19:23;7.70;;;3.30;;
41059;SDS011;26811;53.160;8.202;2023-09-07T14:24:35;6.13;;;3.95;;
41059;SDS011;26811;53.160;8.202;2023-09-07T14:29:36;4.20;;;3.80;;
41059;SDS011;26811;53.160;8.202;2023-09-07T14:34:36;5.10;;;3.53;;
41059;SDS011;26811;53.160;8.202;2023-09-07T14:39:37;7.40;;;3.50;;
41059;SDS011;26811;53.160;8.202;2023-09-07T14:44:37;3.97;;;3.40;;
41059;SDS011;26811;53.160;8.202;2023-09-07T14:49:41;4.72;;;3.28;;
41059;SDS011;26811;53.160;8.202;2023-09-07T14:54:41;6.18;;;3.65;;
41059;SDS011;26811;53.160;8.202;2023-09-07T14:59:43;5.70;;;3.50;;
41059;SDS011;26811;53.160;8.202;2023-09-07T15:04:44;5.33;;;3.80;;
41059;SDS011;26811;53.160;8.202;2023-09-07T15:09:44;4.30;;;3.50;;
41059;SDS011;26811;53.160;8.202;2023-09-07T15:14:45;6.45;;;4.25;;
41059;SDS011;26811;53.160;8.202;2023-09-07T15:19:46;8.00;;;3.92;;
41059;SDS011;26811;53.160;8.202;2023-09-07T15:24:46;6.47;;;4.17;;
41059;SDS011;26811;53.160;8.202;2023-09-07T15:29:47;5.50;;;4.37;;
41059;SDS011;26811;53.160;8.202;2023-09-07T15:34:47;4.37;;;3.97;;
41059;SDS011;26811;53.160;8.202;2023-09-07T15:39:48;6.47;;;4.20;;
41059;SDS011;26811;53.160;8.202;2023-09-07T15:44:50;7.32;;;4.57;;
41059;SDS011;26811;53.160;8.202;2023-09-07T15:49:51;6.07;;;4.37;;
41059;SDS011;26811;53.160;8.202;2023-09-07T15:54:52;7.50;;;4.55;;
41059;SDS011;26811;53.160;8.202;2023-09-07T15:59:52;5.77;;;4.40;;
41059;SDS011;26811;53.160;8.202;2023-09-07T16:04:56;7.03;;;4.43;;
41059;SDS011;26811;53.160;8.202;2023-09-07T16:09:56;7.40;;;4.67;;
41059;SDS011;26811;53.160;8.202;2023-09-07T16:14:57;5.35;;;4.13;;
41059;SDS011;26811;53.160;8.202;2023-09-07T16:19:58;6.40;;;4.63;;
41059;SDS011;26811;53.160;8.202;2023-09-07T16:24:58;11.10;;;4.67;;
41059;SDS011;26811;53.160;8.202;2023-09-07T16:29:59;6.83;;;4.37;;
41059;SDS011;26811;53.160;8.202;2023-09-07T16:34:59;11.67;;;4.50;;
41059;SDS011;26811;53.160;8.202;2023-09-07T16:40:04;6.90;;;4.95;;
41059;SDS011;26811;53.160;8.202;2023-09-07T16:45:06;6.78;;;5.05;;
41059;SDS011;26811;53.160;8.202;2023-09-07T16:50:07;6.90;;;4.90;;
41059;SDS011;26811;53.160;8.202;2023-09-07T16:55:09;6.60;;;5.05;;
41059;SDS011;26811;53.160;8.202;2023-09-07T17:00:10;10.50;;;5.20;;
41059;SDS011;26811;53.160;8.202;2023-09-07T17:10:14;9.88;;;5.47;;
41059;SDS011;26811;53.160;8.202;2023-09-07T17:15:15;11.50;;;6.40;;
41059;SDS011;26811;53.160;8.202;2023-09-07T17:20:16;14.10;;;8.07;;
41059;SDS011;26811;53.160;8.202;2023-09-07T17:25:17;17.80;;;6.25;;
41059;SDS011;26811;53.160;8.202;2023-09-07T17:30:17;7.60;;;6.47;;
41059;SDS011;26811;53.160;8.202;2023-09-07T17:35:18;8.60;;;6.50;;
41059;SDS011;26811;53.160;8.202;2023-09-07T17:40:25;8.18;;;6.10;;
41059;SDS011;26811;53.160;8.202;2023-09-07T17:45:25;15.70;;;6.43;;
41059;SDS011;26811;53.160;8.202;2023-09-07T17:50:26;9.57;;;6.53;;
41059;SDS011;26811;53.160;8.202;2023-09-07T17:55:26;9.83;;;6.63;;
41059;SDS011;26811;53.160;8.202;2023-09-07T18:00:27;10.10;;;6.87;;
41059;SDS011;26811;53.160;8.202;2023-09-07T18:05:28;12.20;;;6.60;;
41059;SDS011;26811;53.160;8.202;2023-09-07T18:10:28;8.80;;;6.03;;
41059;SDS011;26811;53.160;8.202;2023-09-07T18:15:30;10.82;;;7.15;;
41059;SDS011;26811;53.160;8.202;2023-09-07T18:20:31;14.10;;;6.83;;
41059;SDS011;26811;53.160;8.202;2023-09-07T18:25:38;10.43;;;6.85;;
41059;SDS011;26811;53.160;8.202;2023-09-07T18:30:41;10.20;;;6.15;;
41059;SDS011;26811;53.160;8.202;2023-09-07T18:35:42;8.43;;;6.80;;
41059;SDS011;26811;53.160;8.202;2023-09-07T18:40:43;9.07;;;6.43;;
41059;SDS011;26811;53.160;8.202;2023-09-07T18:45:45;6.78;;;6.00;;
41059;SDS011;26811;53.160;8.202;2023-09-07T18:51:03;11.02;;;6.80;;
41059;SDS011;26811;53.160;8.202;2023-09-07T18:56:08;7.68;;;6.70;;
41059;SDS011;26811;53.160;8.202;2023-09-07T19:01:12;8.80;;;6.57;;
41059;SDS011;26811;53.160;8.202;2023-09-07T19:06:14;12.80;;;6.85;;
41059;SDS011;26811;53.160;8.202;2023-09-07T19:11:14;11.57;;;6.43;;
41059;SDS011;26811;53.160;8.202;2023-09-07T19:16:15;7.70;;;5.80;;
41059;SDS011;26811;53.160;8.202;2023-09-07T19:21:17;13.60;;;6.55;;
41059;SDS011;26811;53.160;8.202;2023-09-07T19:26:33;12.88;;;6.78;;
41059;SDS011;26811;53.160;8.202;2023-09-07T19:31:36;9.80;;;6.13;;
41059;SDS011;26811;53.160;8.202;2023-09-07T19:36:38;11.13;;;6.32;;
41059;SDS011;26811;53.160;8.202;2023-09-07T19:41:40;9.67;;;6.87;;
41059;SDS011;26811;53.160;8.202;2023-09-07T19:46:40;9.43;;;6.00;;
41059;SDS011;26811;53.160;8.202;2023-09-07T19:51:41;9.23;;;6.20;;
41059;SDS011;26811;53.160;8.202;2023-09-07T19:56:42;10.57;;;6.35;;
41059;SDS011;26811;53.160;8.202;2023-09-07T20:01:53;9.52;;;6.00;;
41059;SDS011;26811;53.160;8.202;2023-09-07T20:06:55;12.43;;;6.17;;
41059;SDS011;26811;53.160;8.202;2023-09-07T20:11:56;13.38;;;6.63;;
41059;SDS011;26811;53.160;8.202;2023-09-07T20:16:59;14.13;;;6.90;;
41059;SDS011;26811;53.160;8.202;2023-09-07T20:21:59;11.88;;;6.70;;
41059;SDS011;26811;53.160;8.202;2023-09-07T20:27:00;10.10;;;6.07;;
41059;SDS011;26811;53.160;8.202;2023-09-07T20:32:01;13.13;;;6.88;;
41059;SDS011;26811;53.160;8.202;2023-09-07T20:37:02;12.25;;;6.32;;
41059;SDS011;26811;53.160;8.202;2023-09-07T20:42:03;8.45;;;6.82;;
41059;SDS011;26811;53.160;8.202;2023-09-07T20:47:03;9.90;;;6.30;;
41059;SDS011;26811;53.160;8.202;2023-09-07T20:52:04;12.18;;;6.18;;
41059;SDS011;26811;53.160;8.202;2023-09-07T20:57:05;8.60;;;5.90;;
41059;SDS011;26811;53.160;8.202;2023-09-07T21:02:07;17.48;;;6.20;;
41059;SDS011;26811;53.160;8.202;2023-09-07T21:07:07;11.27;;;5.90;;
41059;SDS011;26811;53.160;8.202;2023-09-07T21:12:11;7.55;;;6.13;;
41059;SDS011;26811;53.160;8.202;2023-09-07T21:17:14;11.65;;;6.03;;
41059;SDS011;26811;53.160;8.202;2023-09-07T21:22:15;9.05;;;6.30;;
41059;SDS011;26811;53.160;8.202;2023-09-07T21:27:16;9.82;;;5.95;;
41059;SDS011;26811;53.160;8.202;2023-09-07T21:32:16;9.02;;;6.35;;
41059;SDS011;26811;53.160;8.202;2023-09-07T21:37:17;7.80;;;5.75;;
41059;SDS011;26811;53.160;8.202;2023-09-07T21:42:17;8.02;;;5.55;;
41059;SDS011;26811;53.160;8.202;2023-09-07T21:47:18;11.48;;;6.13;;
41059;SDS011;26811;53.160;8.202;2023-09-07T21:52:20;10.43;;;5.97;;
41059;SDS011;26811;53.160;8.202;2023-09-07T21:57:25;14.18;;;6.10;;
41059;SDS011;26811;53.160;8.202;2023-09-07T22:02:25;9.65;;;6.20;;
41059;SDS011;26811;53.160;8.202;2023-09-07T22:07:26;7.57;;;5.72;;
41059;SDS011;26811;53.160;8.202;2023-09-07T22:12:26;8.05;;;6.13;;
41059;SDS011;26811;53.160;8.202;2023-09-07T22:17:27;7.60;;;5.78;;
41059;SDS011;26811;53.160;8.202;2023-09-07T22:22:28;11.23;;;5.80;;
41059;SDS011;26811;53.160;8.202;2023-09-07T22:27:29;8.75;;;5.50;;
41059;SDS011;26811;53.160;8.202;2023-09-07T22:32:29;7.57;;;6.15;;
41059;SDS011;26811;53.160;8.202;2023-09-07T22:37:30;9.02;;;5.80;;
41059;SDS011;26811;53.160;8.202;2023-09-07T22:42:30;8.70;;;6.45;;
41059;SDS011;26811;53.160;8.202;2023-09-07T22:47:32;8.90;;;6.00;;
41059;SDS011;26811;53.160;8.202;2023-09-07T22:52:33;8.35;;;5.90;;
41059;SDS011;26811;53.160;8.202;2023-09-07T22:57:35;10.32;;;6.22;;
41059;SDS011;26811;53.160;8.202;2023-09-07T23:02:36;10.93;;;5.90;;
41059;SDS011;26811;53.160;8.202;2023-09-07T23:07:37;7.75;;;5.63;;
41059;SDS011;26811;53.160;8.202;2023-09-07T23:12:39;8.32;;;5.80;;
41059;SDS011;26811;53.160;8.202;2023-09-07T23:17:39;12.20;;;6.53;;
41059;SDS011;26811;53.160;8.202;2023-09-07T23:22:40;6.82;;;5.70;;
41059;SDS011;26811;53.160;8.202;2023-09-07T23:27:40;7.75;;;6.15;;
41059;SDS011;26811;53.160;8.202;2023-09-07T23:32:41;8.23;;;6.13;;
41059;SDS011;26811;53.160;8.202;2023-09-07T23:37:42;8.20;;;5.90;;
41059;SDS011;26811;53.160;8.202;2023-09-07T23:42:42;8.60;;;6.25;;
41059;SDS011;26811;53.160;8.202;2023-09-07T23:47:43;6.93;;;5.70;;
41059;SDS011;26811;53.160;8.202;2023-09-07T23:52:44;9.75;;;6.15;;
41059;SDS011;26811;53.160;8.202;2023-09-07T23:57:47;7.75;;;6.03;;
